sensor_id;sensor_type;location;lat;lon;timestamp;temperature;humidity
69543;SHT31;56762;49.494;11.768;2023-04-30T00:01:41;10.35;78.77
69543;SHT31;56762;49.494;11.768;2023-04-30T00:04:09;10.36;79.22
69543;SHT31;56762;49.494;11.768;2023-04-30T00:06:39;10.33;79.10
69543;SHT31;56762;49.494;11.768;2023-04-30T00:09:06;10.33;78.49
69543;SHT31;56762;49.494;11.768;2023-04-30T00:11:34;10.33;78.34
69543;SHT31;56762;49.494;11.768;2023-04-30T00:14:02;10.32;78.87
69543;SHT31;56762;49.494;11.768;2023-04-30T00:16:30;10.32;78.16
69543;SHT31;56762;49.494;11.768;2023-04-30T00:18:57;10.35;77.98
69543;SHT31;56762;49.494;11.768;2023-04-30T00:21:25;10.32;78.34
69543;SHT31;56762;49.494;11.768;2023-04-30T00:23:54;10.30;78.41
69543;SHT31;56762;49.494;11.768;2023-04-30T00:26:22;10.29;79.03
69543;SHT31;56762;49.494;11.768;2023-04-30T00:28:49;10.30;79.11
69543;SHT31;56762;49.494;11.768;2023-04-30T00:31:18;10.25;79.66
69543;SHT31;56762;49.494;11.768;2023-04-30T00:33:45;10.25;79.31
69543;SHT31;56762;49.494;11.768;2023-04-30T00:36:13;10.23;79.12
69543;SHT31;56762;49.494;11.768;2023-04-30T00:38:41;10.30;78.84
69543;SHT31;56762;49.494;11.768;2023-04-30T00:41:10;10.23;78.79
69543;SHT31;56762;49.494;11.768;2023-04-30T00:43:37;10.22;79.12
69543;SHT31;56762;49.494;11.768;2023-04-30T00:46:05;10.25;79.17
69543;SHT31;56762;49.494;11.768;2023-04-30T00:48:33;10.19;79.05
69543;SHT31;56762;49.494;11.768;2023-04-30T00:51:01;10.18;79.13
69543;SHT31;56762;49.494;11.768;2023-04-30T00:53:30;10.19;79.12
69543;SHT31;56762;49.494;11.768;2023-04-30T00:55:58;10.15;79.39
69543;SHT31;56762;49.494;11.768;2023-04-30T00:58:28;10.13;79.65
69543;SHT31;56762;49.494;11.768;2023-04-30T01:00:56;10.12;80.01
69543;SHT31;56762;49.494;11.768;2023-04-30T01:03:24;10.09;80.17
69543;SHT31;56762;49.494;11.768;2023-04-30T01:05:53;10.05;79.96
69543;SHT31;56762;49.494;11.768;2023-04-30T01:08:20;10.05;80.56
69543;SHT31;56762;49.494;11.768;2023-04-30T01:10:53;10.03;80.35
69543;SHT31;56762;49.494;11.768;2023-04-30T01:13:30;10.05;80.52
69543;SHT31;56762;49.494;11.768;2023-04-30T01:16:01;9.99;80.56
69543;SHT31;56762;49.494;11.768;2023-04-30T01:18:40;10.01;80.64
69543;SHT31;56762;49.494;11.768;2023-04-30T01:21:08;9.98;80.23
69543;SHT31;56762;49.494;11.768;2023-04-30T01:23:47;9.98;80.37
69543;SHT31;56762;49.494;11.768;2023-04-30T01:26:28;9.95;80.62
69543;SHT31;56762;49.494;11.768;2023-04-30T01:29:03;9.97;80.87
69543;SHT31;56762;49.494;11.768;2023-04-30T01:31:31;9.97;80.94
69543;SHT31;56762;49.494;11.768;2023-04-30T01:38:02;9.97;80.67
69543;SHT31;56762;49.494;11.768;2023-04-30T01:40:38;9.97;80.83
69543;SHT31;56762;49.494;11.768;2023-04-30T01:43:11;9.99;80.99
69543;SHT31;56762;49.494;11.768;2023-04-30T01:45:54;9.95;80.99
69543;SHT31;56762;49.494;11.768;2023-04-30T01:48:41;9.94;81.15
69543;SHT31;56762;49.494;11.768;2023-04-30T01:51:15;9.97;81.07
69543;SHT31;56762;49.494;11.768;2023-04-30T01:53:44;9.94;81.35
69543;SHT31;56762;49.494;11.768;2023-04-30T01:56:17;9.94;81.30
69543;SHT31;56762;49.494;11.768;2023-04-30T01:58:48;9.92;81.30
69543;SHT31;56762;49.494;11.768;2023-04-30T02:01:28;9.89;81.59
69543;SHT31;56762;49.494;11.768;2023-04-30T02:03:56;9.92;81.81
69543;SHT31;56762;49.494;11.768;2023-04-30T02:06:24;9.92;81.88
69543;SHT31;56762;49.494;11.768;2023-04-30T02:08:54;9.91;82.02
69543;SHT31;56762;49.494;11.768;2023-04-30T02:11:21;9.91;81.88
69543;SHT31;56762;49.494;11.768;2023-04-30T02:13:50;9.88;81.71
69543;SHT31;56762;49.494;11.768;2023-04-30T02:16:17;9.85;81.78
69543;SHT31;56762;49.494;11.768;2023-04-30T02:18:46;9.87;81.97
69543;SHT31;56762;49.494;11.768;2023-04-30T02:21:14;9.87;82.18
69543;SHT31;56762;49.494;11.768;2023-04-30T02:23:42;9.87;81.84
69543;SHT31;56762;49.494;11.768;2023-04-30T02:26:09;9.87;81.48
69543;SHT31;56762;49.494;11.768;2023-04-30T02:28:37;9.85;81.76
69543;SHT31;56762;49.494;11.768;2023-04-30T02:31:05;9.85;81.76
69543;SHT31;56762;49.494;11.768;2023-04-30T02:33:32;9.88;81.73
69543;SHT31;56762;49.494;11.768;2023-04-30T02:36:01;9.84;82.00
69543;SHT31;56762;49.494;11.768;2023-04-30T02:38:29;9.84;81.91
69543;SHT31;56762;49.494;11.768;2023-04-30T02:40:57;9.84;82.05
69543;SHT31;56762;49.494;11.768;2023-04-30T02:43:24;9.81;82.17
69543;SHT31;56762;49.494;11.768;2023-04-30T02:45:52;9.79;81.93
69543;SHT31;56762;49.494;11.768;2023-04-30T02:48:19;9.79;82.29
69543;SHT31;56762;49.494;11.768;2023-04-30T02:50:47;9.81;82.49
69543;SHT31;56762;49.494;11.768;2023-04-30T02:53:16;9.79;82.69
69543;SHT31;56762;49.494;11.768;2023-04-30T02:55:44;9.78;82.57
69543;SHT31;56762;49.494;11.768;2023-04-30T02:58:12;9.78;82.09
69543;SHT31;56762;49.494;11.768;2023-04-30T03:00:39;9.78;82.53
69543;SHT31;56762;49.494;11.768;2023-04-30T03:03:07;9.77;82.62
69543;SHT31;56762;49.494;11.768;2023-04-30T03:05:35;9.75;82.77
69543;SHT31;56762;49.494;11.768;2023-04-30T03:08:03;9.75;82.56
69543;SHT31;56762;49.494;11.768;2023-04-30T03:10:32;9.74;82.35
69543;SHT31;56762;49.494;11.768;2023-04-30T03:12:59;9.74;82.12
69543;SHT31;56762;49.494;11.768;2023-04-30T03:15:27;9.74;82.25
69543;SHT31;56762;49.494;11.768;2023-04-30T03:17:55;9.70;82.22
69543;SHT31;56762;49.494;11.768;2023-04-30T03:20:23;9.75;81.83
69543;SHT31;56762;49.494;11.768;2023-04-30T03:22:50;9.68;81.68
69543;SHT31;56762;49.494;11.768;2023-04-30T03:25:18;9.68;81.69
69543;SHT31;56762;49.494;11.768;2023-04-30T03:27:47;9.64;81.92
69543;SHT31;56762;49.494;11.768;2023-04-30T03:30:14;9.65;81.93
69543;SHT31;56762;49.494;11.768;2023-04-30T03:32:42;9.62;82.06
69543;SHT31;56762;49.494;11.768;2023-04-30T03:35:10;9.64;82.17
69543;SHT31;56762;49.494;11.768;2023-04-30T03:37:37;9.62;82.08
69543;SHT31;56762;49.494;11.768;2023-04-30T03:40:06;9.62;82.54
69543;SHT31;56762;49.494;11.768;2023-04-30T03:42:34;9.59;82.53
69543;SHT31;56762;49.494;11.768;2023-04-30T03:45:04;9.57;82.20
69543;SHT31;56762;49.494;11.768;2023-04-30T03:47:31;9.59;82.65
69543;SHT31;56762;49.494;11.768;2023-04-30T03:49:59;9.58;82.67
69543;SHT31;56762;49.494;11.768;2023-04-30T03:52:27;9.58;82.51
69543;SHT31;56762;49.494;11.768;2023-04-30T03:54:54;9.57;82.45
69543;SHT31;56762;49.494;11.768;2023-04-30T03:57:22;9.55;82.31
69543;SHT31;56762;49.494;11.768;2023-04-30T03:59:50;9.54;82.31
69543;SHT31;56762;49.494;11.768;2023-04-30T04:02:19;9.52;82.51
69543;SHT31;56762;49.494;11.768;2023-04-30T04:04:48;9.55;82.54
69543;SHT31;56762;49.494;11.768;2023-04-30T04:07:16;9.54;82.69
69543;SHT31;56762;49.494;11.768;2023-04-30T04:09:44;9.55;82.39
69543;SHT31;56762;49.494;11.768;2023-04-30T04:12:12;9.52;82.26
69543;SHT31;56762;49.494;11.768;2023-04-30T04:14:39;9.52;82.62
69543;SHT31;56762;49.494;11.768;2023-04-30T04:17:07;9.55;82.27
69543;SHT31;56762;49.494;11.768;2023-04-30T04:19:36;9.58;82.70
69543;SHT31;56762;49.494;11.768;2023-04-30T04:22:03;9.61;82.20
69543;SHT31;56762;49.494;11.768;2023-04-30T04:24:31;9.61;82.00
69543;SHT31;56762;49.494;11.768;2023-04-30T04:26:59;9.62;82.02
69543;SHT31;56762;49.494;11.768;2023-04-30T04:29:28;9.70;81.56
69543;SHT31;56762;49.494;11.768;2023-04-30T04:31:56;9.67;81.82
69543;SHT31;56762;49.494;11.768;2023-04-30T04:34:25;9.67;82.03
69543;SHT31;56762;49.494;11.768;2023-04-30T04:36:54;9.71;81.85
69543;SHT31;56762;49.494;11.768;2023-04-30T04:39:23;9.73;81.96
69543;SHT31;56762;49.494;11.768;2023-04-30T04:41:51;9.70;81.89
69543;SHT31;56762;49.494;11.768;2023-04-30T04:44:18;9.70;82.08
69543;SHT31;56762;49.494;11.768;2023-04-30T04:46:47;9.73;81.88
69543;SHT31;56762;49.494;11.768;2023-04-30T04:49:15;9.77;81.77
69543;SHT31;56762;49.494;11.768;2023-04-30T04:51:43;9.81;82.03
69543;SHT31;56762;49.494;11.768;2023-04-30T04:54:12;9.81;81.06
69543;SHT31;56762;49.494;11.768;2023-04-30T04:56:39;9.87;80.42
69543;SHT31;56762;49.494;11.768;2023-04-30T04:59:07;9.85;80.69
69543;SHT31;56762;49.494;11.768;2023-04-30T05:01:35;9.81;81.19
69543;SHT31;56762;49.494;11.768;2023-04-30T05:04:03;9.85;81.15
69543;SHT31;56762;49.494;11.768;2023-04-30T05:06:31;9.89;80.44
69543;SHT31;56762;49.494;11.768;2023-04-30T05:08:59;9.97;80.28
69543;SHT31;56762;49.494;11.768;2023-04-30T05:11:28;9.99;80.51
69543;SHT31;56762;49.494;11.768;2023-04-30T05:13:56;10.01;80.08
69543;SHT31;56762;49.494;11.768;2023-04-30T05:16:24;10.03;79.89
69543;SHT31;56762;49.494;11.768;2023-04-30T05:18:52;10.06;80.43
69543;SHT31;56762;49.494;11.768;2023-04-30T05:21:20;10.08;80.26
69543;SHT31;56762;49.494;11.768;2023-04-30T05:23:48;10.12;80.01
69543;SHT31;56762;49.494;11.768;2023-04-30T05:26:16;10.16;80.02
69543;SHT31;56762;49.494;11.768;2023-04-30T05:28:45;10.29;79.69
69543;SHT31;56762;49.494;11.768;2023-04-30T05:31:13;10.29;78.99
69543;SHT31;56762;49.494;11.768;2023-04-30T05:33:40;10.39;78.95
69543;SHT31;56762;49.494;11.768;2023-04-30T05:36:08;10.43;78.59
69543;SHT31;56762;49.494;11.768;2023-04-30T05:38:36;10.52;78.26
69543;SHT31;56762;49.494;11.768;2023-04-30T05:41:04;10.57;77.55
69543;SHT31;56762;49.494;11.768;2023-04-30T05:43:31;10.64;77.92
69543;SHT31;56762;49.494;11.768;2023-04-30T05:46:00;10.66;77.15
69543;SHT31;56762;49.494;11.768;2023-04-30T05:48:29;10.71;76.92
69543;SHT31;56762;49.494;11.768;2023-04-30T05:50:56;10.77;77.09
69543;SHT31;56762;49.494;11.768;2023-04-30T05:53:24;10.91;76.74
69543;SHT31;56762;49.494;11.768;2023-04-30T05:55:52;11.07;75.16
69543;SHT31;56762;49.494;11.768;2023-04-30T05:58:19;11.28;74.72
69543;SHT31;56762;49.494;11.768;2023-04-30T06:00:48;11.34;74.13
69543;SHT31;56762;49.494;11.768;2023-04-30T06:03:17;11.14;74.51
69543;SHT31;56762;49.494;11.768;2023-04-30T06:05:46;11.06;75.04
69543;SHT31;56762;49.494;11.768;2023-04-30T06:08:13;10.98;75.19
69543;SHT31;56762;49.494;11.768;2023-04-30T06:10:41;10.96;74.76
69543;SHT31;56762;49.494;11.768;2023-04-30T06:13:09;10.96;74.85
69543;SHT31;56762;49.494;11.768;2023-04-30T06:15:37;11.03;74.45
69543;SHT31;56762;49.494;11.768;2023-04-30T06:18:04;10.87;74.46
69543;SHT31;56762;49.494;11.768;2023-04-30T06:20:34;10.67;75.19
69543;SHT31;56762;49.494;11.768;2023-04-30T06:23:01;10.74;75.11
69543;SHT31;56762;49.494;11.768;2023-04-30T06:25:29;10.83;75.20
69543;SHT31;56762;49.494;11.768;2023-04-30T06:27:57;10.77;75.86
69543;SHT31;56762;49.494;11.768;2023-04-30T06:30:24;10.73;75.67
69543;SHT31;56762;49.494;11.768;2023-04-30T06:32:52;10.70;75.80
69543;SHT31;56762;49.494;11.768;2023-04-30T06:35:21;10.73;75.10
69543;SHT31;56762;49.494;11.768;2023-04-30T06:37:49;10.63;75.05
69543;SHT31;56762;49.494;11.768;2023-04-30T06:40:17;10.55;75.52
69543;SHT31;56762;49.494;11.768;2023-04-30T06:42:45;10.47;75.84
69543;SHT31;56762;49.494;11.768;2023-04-30T06:45:13;10.45;76.15
69543;SHT31;56762;49.494;11.768;2023-04-30T06:47:41;10.57;75.46
69543;SHT31;56762;49.494;11.768;2023-04-30T06:50:10;10.52;75.39
69543;SHT31;56762;49.494;11.768;2023-04-30T06:52:38;10.46;76.14
69543;SHT31;56762;49.494;11.768;2023-04-30T06:55:08;10.45;75.03
69543;SHT31;56762;49.494;11.768;2023-04-30T06:57:35;10.45;75.26
69543;SHT31;56762;49.494;11.768;2023-04-30T07:00:04;10.57;74.61
69543;SHT31;56762;49.494;11.768;2023-04-30T07:02:32;10.63;74.45
69543;SHT31;56762;49.494;11.768;2023-04-30T07:05:00;10.73;74.42
69543;SHT31;56762;49.494;11.768;2023-04-30T07:07:27;10.84;74.26
69543;SHT31;56762;49.494;11.768;2023-04-30T07:09:55;10.93;74.69
69543;SHT31;56762;49.494;11.768;2023-04-30T07:12:24;11.08;74.57
69543;SHT31;56762;49.494;11.768;2023-04-30T07:14:52;11.27;73.46
69543;SHT31;56762;49.494;11.768;2023-04-30T07:17:20;11.51;71.87
69543;SHT31;56762;49.494;11.768;2023-04-30T07:19:49;11.51;70.70
69543;SHT31;56762;49.494;11.768;2023-04-30T07:22:17;11.54;71.07
69543;SHT31;56762;49.494;11.768;2023-04-30T07:24:44;11.72;70.83
69543;SHT31;56762;49.494;11.768;2023-04-30T07:27:12;11.77;70.28
69543;SHT31;56762;49.494;11.768;2023-04-30T07:29:41;11.79;69.92
69543;SHT31;56762;49.494;11.768;2023-04-30T07:32:09;11.79;69.85
69543;SHT31;56762;49.494;11.768;2023-04-30T07:34:36;11.76;70.18
69543;SHT31;56762;49.494;11.768;2023-04-30T07:37:04;11.86;69.28
69543;SHT31;56762;49.494;11.768;2023-04-30T07:39:32;11.91;70.22
69543;SHT31;56762;49.494;11.768;2023-04-30T07:42:00;12.01;69.79
69543;SHT31;56762;49.494;11.768;2023-04-30T07:44:29;12.12;69.64
69543;SHT31;56762;49.494;11.768;2023-04-30T07:46:57;12.13;70.15
69543;SHT31;56762;49.494;11.768;2023-04-30T07:49:25;12.18;69.26
69543;SHT31;56762;49.494;11.768;2023-04-30T07:51:53;12.24;68.46
69543;SHT31;56762;49.494;11.768;2023-04-30T07:54:20;12.42;67.14
69543;SHT31;56762;49.494;11.768;2023-04-30T07:56:48;12.33;67.08
69543;SHT31;56762;49.494;11.768;2023-04-30T07:59:16;12.20;67.21
69543;SHT31;56762;49.494;11.768;2023-04-30T08:01:44;12.09;68.30
69543;SHT31;56762;49.494;11.768;2023-04-30T08:04:13;12.09;69.39
69543;SHT31;56762;49.494;11.768;2023-04-30T08:06:41;12.14;68.42
69543;SHT31;56762;49.494;11.768;2023-04-30T08:09:09;12.24;68.80
69543;SHT31;56762;49.494;11.768;2023-04-30T08:11:37;12.31;68.07
69543;SHT31;56762;49.494;11.768;2023-04-30T08:14:05;12.45;66.40
69543;SHT31;56762;49.494;11.768;2023-04-30T08:16:32;12.49;65.80
69543;SHT31;56762;49.494;11.768;2023-04-30T08:19:00;12.51;65.38
69543;SHT31;56762;49.494;11.768;2023-04-30T08:21:30;12.44;65.72
69543;SHT31;56762;49.494;11.768;2023-04-30T08:23:58;12.45;66.08
69543;SHT31;56762;49.494;11.768;2023-04-30T08:26:26;12.59;65.48
69543;SHT31;56762;49.494;11.768;2023-04-30T08:28:54;12.67;64.79
69543;SHT31;56762;49.494;11.768;2023-04-30T08:31:22;12.74;66.41
69543;SHT31;56762;49.494;11.768;2023-04-30T08:33:50;12.81;64.49
69543;SHT31;56762;49.494;11.768;2023-04-30T08:36:17;12.88;62.19
69543;SHT31;56762;49.494;11.768;2023-04-30T08:38:47;12.79;61.81
69543;SHT31;56762;49.494;11.768;2023-04-30T08:41:15;12.82;63.98
69543;SHT31;56762;49.494;11.768;2023-04-30T08:43:43;12.96;64.60
69543;SHT31;56762;49.494;11.768;2023-04-30T08:46:11;13.02;60.32
69543;SHT31;56762;49.494;11.768;2023-04-30T08:48:40;12.95;61.02
69543;SHT31;56762;49.494;11.768;2023-04-30T08:51:07;12.99;60.50
69543;SHT31;56762;49.494;11.768;2023-04-30T08:53:36;12.92;59.02
69543;SHT31;56762;49.494;11.768;2023-04-30T08:56:06;13.05;61.43
69543;SHT31;56762;49.494;11.768;2023-04-30T08:58:36;13.08;58.64
69543;SHT31;56762;49.494;11.768;2023-04-30T09:01:06;13.09;59.48
69543;SHT31;56762;49.494;11.768;2023-04-30T09:03:35;13.20;59.46
69543;SHT31;56762;49.494;11.768;2023-04-30T09:06:03;13.16;59.70
69543;SHT31;56762;49.494;11.768;2023-04-30T09:08:41;13.18;57.84
69543;SHT31;56762;49.494;11.768;2023-04-30T09:11:29;13.20;57.44
69543;SHT31;56762;49.494;11.768;2023-04-30T09:13:58;13.33;58.34
69543;SHT31;56762;49.494;11.768;2023-04-30T09:16:27;13.30;57.89
69543;SHT31;56762;49.494;11.768;2023-04-30T09:18:57;13.37;56.38
69543;SHT31;56762;49.494;11.768;2023-04-30T09:21:32;13.35;56.55
69543;SHT31;56762;49.494;11.768;2023-04-30T09:24:01;13.32;55.52
69543;SHT31;56762;49.494;11.768;2023-04-30T09:26:35;13.35;54.04
69543;SHT31;56762;49.494;11.768;2023-04-30T09:29:03;13.33;56.67
69543;SHT31;56762;49.494;11.768;2023-04-30T09:31:34;13.53;55.09
69543;SHT31;56762;49.494;11.768;2023-04-30T09:34:02;13.49;52.95
69543;SHT31;56762;49.494;11.768;2023-04-30T09:36:30;13.63;53.51
69543;SHT31;56762;49.494;11.768;2023-04-30T09:39:05;13.60;54.14
69543;SHT31;56762;49.494;11.768;2023-04-30T09:41:37;13.53;54.97
69543;SHT31;56762;49.494;11.768;2023-04-30T09:44:05;13.42;53.23
69543;SHT31;56762;49.494;11.768;2023-04-30T09:46:34;13.50;53.22
69543;SHT31;56762;49.494;11.768;2023-04-30T09:49:04;13.50;54.92
69543;SHT31;56762;49.494;11.768;2023-04-30T09:51:32;13.51;56.71
69543;SHT31;56762;49.494;11.768;2023-04-30T09:54:01;13.71;56.10
69543;SHT31;56762;49.494;11.768;2023-04-30T09:56:32;13.74;55.48
69543;SHT31;56762;49.494;11.768;2023-04-30T09:59:02;13.75;55.08
69543;SHT31;56762;49.494;11.768;2023-04-30T10:01:31;13.84;55.15
69543;SHT31;56762;49.494;11.768;2023-04-30T10:04:06;13.97;53.33
69543;SHT31;56762;49.494;11.768;2023-04-30T10:06:34;14.04;53.84
69543;SHT31;56762;49.494;11.768;2023-04-30T10:09:04;14.05;52.58
69543;SHT31;56762;49.494;11.768;2023-04-30T10:11:35;14.00;52.77
69543;SHT31;56762;49.494;11.768;2023-04-30T10:14:09;14.12;52.06
69543;SHT31;56762;49.494;11.768;2023-04-30T10:16:42;14.15;53.12
69543;SHT31;56762;49.494;11.768;2023-04-30T10:19:13;14.12;53.27
69543;SHT31;56762;49.494;11.768;2023-04-30T10:21:44;14.05;53.25
69543;SHT31;56762;49.494;11.768;2023-04-30T10:24:13;14.17;55.45
69543;SHT31;56762;49.494;11.768;2023-04-30T10:26:43;14.14;54.65
69543;SHT31;56762;49.494;11.768;2023-04-30T10:29:14;14.02;52.58
69543;SHT31;56762;49.494;11.768;2023-04-30T10:31:45;13.88;54.41
69543;SHT31;56762;49.494;11.768;2023-04-30T10:34:21;13.94;55.83
69543;SHT31;56762;49.494;11.768;2023-04-30T10:36:55;14.05;54.14
69543;SHT31;56762;49.494;11.768;2023-04-30T10:39:25;14.24;54.24
69543;SHT31;56762;49.494;11.768;2023-04-30T10:42:00;14.49;52.86
69543;SHT31;56762;49.494;11.768;2023-04-30T10:44:32;14.63;52.09
69543;SHT31;56762;49.494;11.768;2023-04-30T10:47:01;14.72;51.40
69543;SHT31;56762;49.494;11.768;2023-04-30T10:49:29;14.63;51.76
69543;SHT31;56762;49.494;11.768;2023-04-30T10:51:58;14.53;53.68
69543;SHT31;56762;49.494;11.768;2023-04-30T10:54:28;14.60;52.57
69543;SHT31;56762;49.494;11.768;2023-04-30T10:57:08;14.49;53.73
69543;SHT31;56762;49.494;11.768;2023-04-30T10:59:41;14.36;53.43
69543;SHT31;56762;49.494;11.768;2023-04-30T11:02:13;14.40;52.21
69543;SHT31;56762;49.494;11.768;2023-04-30T11:05:09;14.58;51.22
69543;SHT31;56762;49.494;11.768;2023-04-30T11:07:45;14.75;51.50
69543;SHT31;56762;49.494;11.768;2023-04-30T11:10:15;14.86;51.85
69543;SHT31;56762;49.494;11.768;2023-04-30T11:12:50;14.90;51.96
69543;SHT31;56762;49.494;11.768;2023-04-30T11:15:20;15.03;51.54
69543;SHT31;56762;49.494;11.768;2023-04-30T11:17:55;15.21;50.63
69543;SHT31;56762;49.494;11.768;2023-04-30T11:20:24;15.24;51.45
69543;SHT31;56762;49.494;11.768;2023-04-30T11:23:07;15.42;52.74
69543;SHT31;56762;49.494;11.768;2023-04-30T11:25:39;15.44;51.97
69543;SHT31;56762;49.494;11.768;2023-04-30T11:28:10;15.31;51.96
69543;SHT31;56762;49.494;11.768;2023-04-30T11:30:41;15.30;50.88
69543;SHT31;56762;49.494;11.768;2023-04-30T11:33:16;15.20;49.99
69543;SHT31;56762;49.494;11.768;2023-04-30T11:35:44;15.01;50.82
69543;SHT31;56762;49.494;11.768;2023-04-30T11:38:12;14.98;51.63
69543;SHT31;56762;49.494;11.768;2023-04-30T11:40:42;15.06;52.16
69543;SHT31;56762;49.494;11.768;2023-04-30T11:43:20;15.00;49.03
69543;SHT31;56762;49.494;11.768;2023-04-30T11:46:00;14.98;50.14
69543;SHT31;56762;49.494;11.768;2023-04-30T11:48:31;15.14;50.95
69543;SHT31;56762;49.494;11.768;2023-04-30T11:51:02;15.31;52.47
69543;SHT31;56762;49.494;11.768;2023-04-30T11:53:30;15.48;49.58
69543;SHT31;56762;49.494;11.768;2023-04-30T11:56:02;15.66;51.09
69543;SHT31;56762;49.494;11.768;2023-04-30T11:58:33;15.81;50.39
69543;SHT31;56762;49.494;11.768;2023-04-30T12:01:05;15.79;50.26
69543;SHT31;56762;49.494;11.768;2023-04-30T12:03:39;15.89;49.25
69543;SHT31;56762;49.494;11.768;2023-04-30T12:06:09;15.93;48.63
69543;SHT31;56762;49.494;11.768;2023-04-30T12:08:39;16.03;49.57
69543;SHT31;56762;49.494;11.768;2023-04-30T12:11:18;16.03;47.55
69543;SHT31;56762;49.494;11.768;2023-04-30T12:13:51;15.92;46.49
69543;SHT31;56762;49.494;11.768;2023-04-30T12:16:22;15.83;46.72
69543;SHT31;56762;49.494;11.768;2023-04-30T12:18:50;15.70;49.00
69543;SHT31;56762;49.494;11.768;2023-04-30T12:21:20;15.59;49.31
69543;SHT31;56762;49.494;11.768;2023-04-30T12:23:48;15.49;49.69
69543;SHT31;56762;49.494;11.768;2023-04-30T12:26:15;15.41;49.24
69543;SHT31;56762;49.494;11.768;2023-04-30T12:28:46;15.37;49.85
69543;SHT31;56762;49.494;11.768;2023-04-30T12:31:16;15.44;48.63
69543;SHT31;56762;49.494;11.768;2023-04-30T12:33:52;15.52;48.44
69543;SHT31;56762;49.494;11.768;2023-04-30T12:36:20;15.55;49.22
69543;SHT31;56762;49.494;11.768;2023-04-30T12:38:47;15.61;50.76
69543;SHT31;56762;49.494;11.768;2023-04-30T12:41:15;15.70;50.13
69543;SHT31;56762;49.494;11.768;2023-04-30T12:43:47;15.81;49.43
69543;SHT31;56762;49.494;11.768;2023-04-30T12:46:24;15.83;48.78
69543;SHT31;56762;49.494;11.768;2023-04-30T12:48:54;15.85;49.60
69543;SHT31;56762;49.494;11.768;2023-04-30T12:51:21;15.90;46.37
69543;SHT31;56762;49.494;11.768;2023-04-30T12:53:49;15.90;46.59
69543;SHT31;56762;49.494;11.768;2023-04-30T12:56:18;15.96;46.58
69543;SHT31;56762;49.494;11.768;2023-04-30T12:58:47;15.99;47.44
69543;SHT31;56762;49.494;11.768;2023-04-30T13:01:18;16.03;45.90
69543;SHT31;56762;49.494;11.768;2023-04-30T13:03:47;16.02;46.53
69543;SHT31;56762;49.494;11.768;2023-04-30T13:06:16;16.13;47.53
69543;SHT31;56762;49.494;11.768;2023-04-30T13:08:44;16.29;45.18
69543;SHT31;56762;49.494;11.768;2023-04-30T13:11:25;16.40;47.23
69543;SHT31;56762;49.494;11.768;2023-04-30T13:13:55;16.51;46.39
69543;SHT31;56762;49.494;11.768;2023-04-30T13:16:23;16.63;44.93
69543;SHT31;56762;49.494;11.768;2023-04-30T13:18:51;16.67;43.71
69543;SHT31;56762;49.494;11.768;2023-04-30T13:21:20;16.67;46.08
69543;SHT31;56762;49.494;11.768;2023-04-30T13:23:48;16.61;47.66
69543;SHT31;56762;49.494;11.768;2023-04-30T13:26:19;16.58;47.49
69543;SHT31;56762;49.494;11.768;2023-04-30T13:28:48;16.58;46.57
69543;SHT31;56762;49.494;11.768;2023-04-30T13:31:16;16.57;43.78
69543;SHT31;56762;49.494;11.768;2023-04-30T13:33:44;16.50;44.72
69543;SHT31;56762;49.494;11.768;2023-04-30T13:36:11;16.47;44.72
69543;SHT31;56762;49.494;11.768;2023-04-30T13:38:42;16.33;44.55
69543;SHT31;56762;49.494;11.768;2023-04-30T13:41:09;16.17;44.81
69543;SHT31;56762;49.494;11.768;2023-04-30T13:43:37;16.00;46.43
69543;SHT31;56762;49.494;11.768;2023-04-30T13:46:08;15.88;46.59
69543;SHT31;56762;49.494;11.768;2023-04-30T13:48:36;15.81;47.25
69543;SHT31;56762;49.494;11.768;2023-04-30T13:51:04;15.73;45.93
69543;SHT31;56762;49.494;11.768;2023-04-30T13:53:31;15.79;45.53
69543;SHT31;56762;49.494;11.768;2023-04-30T13:56:00;16.00;45.00
69543;SHT31;56762;49.494;11.768;2023-04-30T13:58:28;16.13;44.71
69543;SHT31;56762;49.494;11.768;2023-04-30T14:00:56;16.39;44.74
69543;SHT31;56762;49.494;11.768;2023-04-30T14:03:24;16.37;46.37
69543;SHT31;56762;49.494;11.768;2023-04-30T14:05:53;16.43;46.96
69543;SHT31;56762;49.494;11.768;2023-04-30T14:08:21;16.51;46.53
69543;SHT31;56762;49.494;11.768;2023-04-30T14:10:49;16.67;44.62
69543;SHT31;56762;49.494;11.768;2023-04-30T14:13:18;16.63;45.08
69543;SHT31;56762;49.494;11.768;2023-04-30T14:15:46;16.58;45.04
69543;SHT31;56762;49.494;11.768;2023-04-30T14:18:14;16.58;44.69
69543;SHT31;56762;49.494;11.768;2023-04-30T14:20:41;16.47;43.71
69543;SHT31;56762;49.494;11.768;2023-04-30T14:23:09;16.46;43.87
69543;SHT31;56762;49.494;11.768;2023-04-30T14:25:37;16.43;43.69
69543;SHT31;56762;49.494;11.768;2023-04-30T14:28:04;16.31;44.28
69543;SHT31;56762;49.494;11.768;2023-04-30T14:30:34;16.27;43.80
69543;SHT31;56762;49.494;11.768;2023-04-30T14:33:02;16.30;43.36
69543;SHT31;56762;49.494;11.768;2023-04-30T14:35:29;16.34;45.10
69543;SHT31;56762;49.494;11.768;2023-04-30T14:37:57;16.51;43.90
69543;SHT31;56762;49.494;11.768;2023-04-30T14:40:25;16.70;43.22
69543;SHT31;56762;49.494;11.768;2023-04-30T14:42:53;16.75;44.23
69543;SHT31;56762;49.494;11.768;2023-04-30T14:45:20;16.84;43.96
69543;SHT31;56762;49.494;11.768;2023-04-30T14:47:49;16.84;44.07
69543;SHT31;56762;49.494;11.768;2023-04-30T14:50:17;16.79;44.03
69543;SHT31;56762;49.494;11.768;2023-04-30T14:52:45;16.92;43.55
69543;SHT31;56762;49.494;11.768;2023-04-30T14:55:12;16.75;43.68
69543;SHT31;56762;49.494;11.768;2023-04-30T14:57:40;16.63;43.69
69543;SHT31;56762;49.494;11.768;2023-04-30T15:00:08;16.56;44.49
69543;SHT31;56762;49.494;11.768;2023-04-30T15:02:37;16.40;44.92
69543;SHT31;56762;49.494;11.768;2023-04-30T15:05:07;16.37;45.09
69543;SHT31;56762;49.494;11.768;2023-04-30T15:07:35;16.27;45.29
69543;SHT31;56762;49.494;11.768;2023-04-30T15:10:03;16.16;45.75
69543;SHT31;56762;49.494;11.768;2023-04-30T15:12:32;16.13;44.86
69543;SHT31;56762;49.494;11.768;2023-04-30T15:15:01;16.08;45.33
69543;SHT31;56762;49.494;11.768;2023-04-30T15:17:29;15.99;45.68
69543;SHT31;56762;49.494;11.768;2023-04-30T15:20:00;15.99;46.58
69543;SHT31;56762;49.494;11.768;2023-04-30T15:22:30;15.89;44.99
69543;SHT31;56762;49.494;11.768;2023-04-30T15:24:58;15.78;43.47
69543;SHT31;56762;49.494;11.768;2023-04-30T15:27:26;15.69;45.12
69543;SHT31;56762;49.494;11.768;2023-04-30T15:29:55;15.58;44.88
69543;SHT31;56762;49.494;11.768;2023-04-30T15:32:23;15.51;46.13
69543;SHT31;56762;49.494;11.768;2023-04-30T15:34:52;15.54;46.27
69543;SHT31;56762;49.494;11.768;2023-04-30T15:37:20;15.49;45.82